Kalar Kahar Weather



Kalar Kahar's Current Weather

Temprature 33.68o broken clouds

broken clouds

Rain: 0 %

Min Temprature33.68o
Max Temprature33.68o
Humidity21
Wind Speed2.4 m/h
Sun Rise05:15:48
Sun Set18:55:36
Current Time: 08-May-2021 15:43:10
Lat/Lon: 32.7818, 72.6994




Kalar Kahar's Geo Location



Kalar Kahar's Weather Forecast

Time Overall Temp Min Temp Max Temp Humidity Wind Speed Rain
08-May-2021 (Sat)
17:00:00 scattered clouds 33.390 33.390 33.390 21 1.36 m/h 0 %
20:00:00 light rain 31.860 28.810 31.860 24 2.52 m/h 32 %
23:00:00 light rain 28.780 26.480 28.780 31 2.19 m/h 61 %
09-May-2021 (Sun)
02:00:00 light rain 25.120 25.120 25.120 40 2.13 m/h 42 %
05:00:00 scattered clouds 24.560 24.560 24.560 41 1.47 m/h 0 %
08:00:00 scattered clouds 29.220 29.220 29.220 31 2 m/h 0 %
11:00:00 scattered clouds 33.770 33.770 33.770 22 3.6 m/h 0 %
14:00:00 scattered clouds 35.360 35.360 35.360 18 2.63 m/h 0 %
17:00:00 few clouds 35.640 35.640 35.640 16 0.92 m/h 0 %
20:00:00 light rain 26.060 26.060 26.060 42 6.39 m/h 124 %
23:00:00 broken clouds 25.410 25.410 25.410 41 2.58 m/h 0 %
10-May-2021 (Mon)
02:00:00 scattered clouds 23.610 23.610 23.610 45 2.44 m/h 0 %
05:00:00 few clouds 22.660 22.660 22.660 48 1.17 m/h 0 %
08:00:00 scattered clouds 28.000 28.000 28.000 33 1.69 m/h 0 %
11:00:00 scattered clouds 32.950 32.950 32.950 22 1.79 m/h 0 %
14:00:00 broken clouds 35.630 35.630 35.630 18 2.42 m/h 0 %
17:00:00 broken clouds 35.390 35.390 35.390 17 2.56 m/h 0 %
20:00:00 scattered clouds 31.210 31.210 31.210 23 2.43 m/h 0 %
23:00:00 broken clouds 28.960 28.960 28.960 28 1.93 m/h 0 %
11-May-2021 (Tue)
02:00:00 broken clouds 27.280 27.280 27.280 31 1.43 m/h 0 %
05:00:00 scattered clouds 25.870 25.870 25.870 34 2.99 m/h 0 %
08:00:00 clear sky 30.370 30.370 30.370 26 3.49 m/h 0 %
11:00:00 clear sky 34.560 34.560 34.560 19 4.8 m/h 0 %
14:00:00 clear sky 37.620 37.620 37.620 14 3.32 m/h 0 %
17:00:00 clear sky 37.750 37.750 37.750 11 2.8 m/h 0 %
20:00:00 scattered clouds 32.690 32.690 32.690 16 2.51 m/h 0 %
23:00:00 light rain 24.960 24.960 24.960 43 7.34 m/h 34 %
12-May-2021 (Wed)
02:00:00 broken clouds 24.540 24.540 24.540 44 4.5 m/h 0 %
05:00:00 broken clouds 22.600 22.600 22.600 54 2.22 m/h 0 %
08:00:00 light rain 25.040 25.040 25.040 45 2.84 m/h 22 %
11:00:00 scattered clouds 30.360 30.360 30.360 30 3.11 m/h 0 %
14:00:00 broken clouds 32.980 32.980 32.980 24 6.38 m/h 0 %
17:00:00 light rain 28.830 28.830 28.830 35 6.34 m/h 47 %
20:00:00 heavy intensity rain 19.070 19.070 19.070 88 8.98 m/h 1,313 %
23:00:00 moderate rain 22.110 22.110 22.110 56 1.65 m/h 531 %
13-May-2021 (Thu)
02:00:00 overcast clouds 21.480 21.480 21.480 64 0.23 m/h 0 %
05:00:00 light rain 20.570 20.570 20.570 68 1.15 m/h 28 %
08:00:00 light rain 23.120 23.120 23.120 56 2.49 m/h 13 %
11:00:00 clear sky 27.230 27.230 27.230 41 1.5 m/h 0 %
14:00:00 scattered clouds 29.920 29.920 29.920 32 1.16 m/h 0 %

Famous Cities (60)